Terminal Aerodrome Forecast
Issued by NWS Greer, SC

Home | Current Version | Previous Version | Text Only | Print | Product List | Glossary On
Versions: 1 2 3 4 5 6 7 8 9 10 11 12 13 14 15 16 17 18
000
FTUS42 KGSP 270535 AAC
TAFGSP
TAF AMD
KGSP 270535Z 2706/2806 23003KT P6SM OVC005
      TEMPO 2706/2710 SCT005 OVC100
     FM271400 22006KT P6SM BKN020
     FM271600 22007KT P6SM BKN060
     FM271800 21008KT P6SM BKN060 PROB30 2718/2724 4SM TSRA BKN040CB
     FM280000 19004KT P6SM BKN060=

USA.gov is the U.S. government's official web portal to all federal, state and local government web resources and services.